sensor_id;sensor_type;location;lat;lon;timestamp;pressure;altitude;pressure_sealevel;temperature;humidity
70900;BME280;67902;52.154;5.430;2023-05-09T00:00:01;101860.66;;;15.07;85.90
70900;BME280;67902;52.154;5.430;2023-05-09T00:02:28;101856.78;;;15.03;86.58
70900;BME280;67902;52.154;5.430;2023-05-09T00:04:55;101851.25;;;14.98;86.21
70900;BME280;67902;52.154;5.430;2023-05-09T00:07:21;101853.16;;;14.98;86.85
70900;BME280;67902;52.154;5.430;2023-05-09T00:09:48;101842.06;;;15.04;86.58
70900;BME280;67902;52.154;5.430;2023-05-09T00:12:14;101836.94;;;15.08;85.83
70900;BME280;67902;52.154;5.430;2023-05-09T00:14:41;101843.72;;;15.05;86.06
70900;BME280;67902;52.154;5.430;2023-05-09T00:17:10;101840.91;;;15.00;86.61
70900;BME280;67902;52.154;5.430;2023-05-09T00:19:39;101841.91;;;14.94;86.77
70900;BME280;67902;52.154;5.430;2023-05-09T00:22:06;101841.84;;;14.89;86.88
70900;BME280;67902;52.154;5.430;2023-05-09T00:24:34;101842.06;;;14.88;87.09
70900;BME280;67902;52.154;5.430;2023-05-09T00:27:00;101837.44;;;14.88;87.19
70900;BME280;67902;52.154;5.430;2023-05-09T00:29:27;101836.03;;;14.86;87.17
70900;BME280;67902;52.154;5.430;2023-05-09T00:31:53;101837.84;;;14.80;87.00
70900;BME280;67902;52.154;5.430;2023-05-09T00:34:20;101840.00;;;14.78;87.27
70900;BME280;67902;52.154;5.430;2023-05-09T00:36:46;101838.59;;;14.76;86.41
70900;BME280;67902;52.154;5.430;2023-05-09T00:39:13;101837.34;;;14.67;86.56
70900;BME280;67902;52.154;5.430;2023-05-09T00:41:39;101832.31;;;14.59;87.17
70900;BME280;67902;52.154;5.430;2023-05-09T00:44:06;101835.75;;;14.54;87.60
70900;BME280;67902;52.154;5.430;2023-05-09T00:46:32;101830.31;;;14.54;88.39
70900;BME280;67902;52.154;5.430;2023-05-09T00:48:59;101830.81;;;14.51;87.23
70900;BME280;67902;52.154;5.430;2023-05-09T00:51:26;101836.06;;;14.41;88.13
70900;BME280;67902;52.154;5.430;2023-05-09T00:53:53;101826.00;;;14.41;88.78
70900;BME280;67902;52.154;5.430;2023-05-09T00:56:20;101825.75;;;14.43;88.38
70900;BME280;67902;52.154;5.430;2023-05-09T00:58:47;101826.84;;;14.42;88.67
70900;BME280;67902;52.154;5.430;2023-05-09T01:01:13;101828.25;;;14.44;88.35
70900;BME280;67902;52.154;5.430;2023-05-09T01:03:40;101822.66;;;14.51;88.34
70900;BME280;67902;52.154;5.430;2023-05-09T01:06:16;101817.78;;;14.53;87.78
70900;BME280;67902;52.154;5.430;2023-05-09T01:08:57;101811.00;;;14.56;87.51
70900;BME280;67902;52.154;5.430;2023-05-09T01:11:35;101801.06;;;14.49;87.77
70900;BME280;67902;52.154;5.430;2023-05-09T01:14:21;101797.09;;;14.57;87.72
70900;BME280;67902;52.154;5.430;2023-05-09T01:22:11;101787.59;;;14.43;87.89
70900;BME280;67902;52.154;5.430;2023-05-09T01:28:11;101779.03;;;14.51;88.03
70900;BME280;67902;52.154;5.430;2023-05-09T01:30:41;101777.38;;;14.50;87.79
70900;BME280;67902;52.154;5.430;2023-05-09T01:33:09;101772.16;;;14.48;87.64
70900;BME280;67902;52.154;5.430;2023-05-09T01:35:40;101768.03;;;14.46;88.22
70900;BME280;67902;52.154;5.430;2023-05-09T01:38:14;101767.59;;;14.37;88.26
70900;BME280;67902;52.154;5.430;2023-05-09T01:40:44;101772.34;;;14.42;88.63
70900;BME280;67902;52.154;5.430;2023-05-09T01:43:15;101766.63;;;14.43;88.09
70900;BME280;67902;52.154;5.430;2023-05-09T01:45:43;101767.72;;;14.42;87.85
70900;BME280;67902;52.154;5.430;2023-05-09T01:48:11;101771.16;;;14.38;88.02
70900;BME280;67902;52.154;5.430;2023-05-09T01:50:38;101764.56;;;14.34;88.29
70900;BME280;67902;52.154;5.430;2023-05-09T01:53:06;101759.69;;;14.36;88.27
70900;BME280;67902;52.154;5.430;2023-05-09T01:55:35;101755.31;;;14.35;88.49
70900;BME280;67902;52.154;5.430;2023-05-09T01:58:04;101754.47;;;14.34;88.66
70900;BME280;67902;52.154;5.430;2023-05-09T02:00:32;101764.19;;;14.30;88.59
70900;BME280;67902;52.154;5.430;2023-05-09T02:03:00;101759.25;;;14.27;88.39
70900;BME280;67902;52.154;5.430;2023-05-09T02:05:28;101757.34;;;14.28;88.55
70900;BME280;67902;52.154;5.430;2023-05-09T02:07:56;101749.16;;;14.28;88.68
70900;BME280;67902;52.154;5.430;2023-05-09T02:10:26;101750.72;;;14.24;88.73
70900;BME280;67902;52.154;5.430;2023-05-09T02:12:53;101744.69;;;14.22;88.80
70900;BME280;67902;52.154;5.430;2023-05-09T02:15:21;101735.47;;;14.23;89.39
70900;BME280;67902;52.154;5.430;2023-05-09T02:17:48;101742.63;;;14.29;88.77
70900;BME280;67902;52.154;5.430;2023-05-09T02:20:14;101741.56;;;14.30;88.96
70900;BME280;67902;52.154;5.430;2023-05-09T02:22:42;101738.75;;;14.25;88.60
70900;BME280;67902;52.154;5.430;2023-05-09T02:25:10;101731.16;;;14.27;88.91
70900;BME280;67902;52.154;5.430;2023-05-09T02:27:42;101728.34;;;14.22;88.85
70900;BME280;67902;52.154;5.430;2023-05-09T02:30:14;101727.78;;;14.20;88.97
70900;BME280;67902;52.154;5.430;2023-05-09T02:32:44;101726.69;;;14.21;88.83
70900;BME280;67902;52.154;5.430;2023-05-09T02:35:13;101728.28;;;14.17;88.18
70900;BME280;67902;52.154;5.430;2023-05-09T02:37:43;101729.09;;;14.01;88.77
70900;BME280;67902;52.154;5.430;2023-05-09T02:40:10;101728.13;;;13.95;88.87
70900;BME280;67902;52.154;5.430;2023-05-09T02:42:37;101725.66;;;13.93;88.91
70900;BME280;67902;52.154;5.430;2023-05-09T02:45:03;101724.34;;;13.96;88.76
70900;BME280;67902;52.154;5.430;2023-05-09T02:47:30;101724.84;;;13.93;88.84
70900;BME280;67902;52.154;5.430;2023-05-09T02:49:57;101729.94;;;13.89;89.34
70900;BME280;67902;52.154;5.430;2023-05-09T02:52:23;101729.63;;;13.86;89.37
70900;BME280;67902;52.154;5.430;2023-05-09T02:54:49;101719.56;;;13.86;89.50
70900;BME280;67902;52.154;5.430;2023-05-09T02:57:16;101722.03;;;13.88;89.78
70900;BME280;67902;52.154;5.430;2023-05-09T02:59:42;101711.41;;;13.86;89.42
70900;BME280;67902;52.154;5.430;2023-05-09T03:02:09;101712.47;;;13.85;89.52
70900;BME280;67902;52.154;5.430;2023-05-09T03:04:35;101719.56;;;13.86;89.66
70900;BME280;67902;52.154;5.430;2023-05-09T03:07:03;101719.56;;;13.86;89.35
70900;BME280;67902;52.154;5.430;2023-05-09T03:09:29;101708.06;;;13.84;89.53
70900;BME280;67902;52.154;5.430;2023-05-09T03:11:56;101702.97;;;13.88;90.36
70900;BME280;67902;52.154;5.430;2023-05-09T03:14:22;101692.44;;;13.91;89.91
70900;BME280;67902;52.154;5.430;2023-05-09T03:16:49;101696.22;;;13.90;89.98
70900;BME280;67902;52.154;5.430;2023-05-09T03:19:15;101694.06;;;13.92;90.19
70900;BME280;67902;52.154;5.430;2023-05-09T03:21:42;101690.84;;;13.95;90.13
70900;BME280;67902;52.154;5.430;2023-05-09T03:24:09;101685.66;;;13.94;89.82
70900;BME280;67902;52.154;5.430;2023-05-09T03:26:35;101683.41;;;13.91;89.80
70900;BME280;67902;52.154;5.430;2023-05-09T03:29:02;101679.88;;;13.90;89.85
70900;BME280;67902;52.154;5.430;2023-05-09T03:31:29;101680.94;;;13.89;90.08
70900;BME280;67902;52.154;5.430;2023-05-09T03:33:57;101666.25;;;13.90;90.28
70900;BME280;67902;52.154;5.430;2023-05-09T03:36:24;101671.97;;;13.89;90.39
70900;BME280;67902;52.154;5.430;2023-05-09T03:38:50;101664.09;;;13.92;90.21
70900;BME280;67902;52.154;5.430;2023-05-09T03:41:16;101664.59;;;13.89;90.21
70900;BME280;67902;52.154;5.430;2023-05-09T03:43:44;101659.16;;;13.89;90.58
70900;BME280;67902;52.154;5.430;2023-05-09T03:46:10;101647.69;;;13.87;90.50
70900;BME280;67902;52.154;5.430;2023-05-09T03:48:37;101644.63;;;13.84;90.77
70900;BME280;67902;52.154;5.430;2023-05-09T03:51:03;101645.44;;;13.84;90.82
70900;BME280;67902;52.154;5.430;2023-05-09T03:53:30;101641.66;;;13.85;90.48
70900;BME280;67902;52.154;5.430;2023-05-09T03:55:56;101633.50;;;13.85;90.64
70900;BME280;67902;52.154;5.430;2023-05-09T03:58:23;101630.78;;;13.85;90.34
70900;BME280;67902;52.154;5.430;2023-05-09T04:00:49;101629.13;;;13.84;90.04
70900;BME280;67902;52.154;5.430;2023-05-09T04:03:15;101626.41;;;13.84;90.50
70900;BME280;67902;52.154;5.430;2023-05-09T04:05:42;101625.00;;;13.82;90.41
70900;BME280;67902;52.154;5.430;2023-05-09T04:08:08;101629.28;;;13.78;90.82
70900;BME280;67902;52.154;5.430;2023-05-09T04:10:35;101619.69;;;13.75;90.71
70900;BME280;67902;52.154;5.430;2023-05-09T04:13:01;101624.06;;;13.76;90.88
70900;BME280;67902;52.154;5.430;2023-05-09T04:15:27;101632.59;;;13.80;90.35
70900;BME280;67902;52.154;5.430;2023-05-09T04:17:54;101625.75;;;13.77;90.34
70900;BME280;67902;52.154;5.430;2023-05-09T04:20:20;101633.91;;;13.77;90.25
70900;BME280;67902;52.154;5.430;2023-05-09T04:22:47;101631.19;;;13.77;90.75
70900;BME280;67902;52.154;5.430;2023-05-09T04:25:13;101630.09;;;13.78;90.60
70900;BME280;67902;52.154;5.430;2023-05-09T04:27:41;101622.19;;;13.77;90.59
70900;BME280;67902;52.154;5.430;2023-05-09T04:30:08;101631.19;;;13.77;90.23
70900;BME280;67902;52.154;5.430;2023-05-09T04:32:34;101624.06;;;13.76;90.61
70900;BME280;67902;52.154;5.430;2023-05-09T04:35:02;101632.25;;;13.76;90.23
70900;BME280;67902;52.154;5.430;2023-05-09T04:37:29;101630.09;;;13.78;90.33
70900;BME280;67902;52.154;5.430;2023-05-09T04:39:56;101625.75;;;13.77;90.31
70900;BME280;67902;52.154;5.430;2023-05-09T04:42:23;101619.22;;;13.78;90.71
70900;BME280;67902;52.154;5.430;2023-05-09T04:44:49;101609.97;;;13.79;90.49
70900;BME280;67902;52.154;5.430;2023-05-09T04:47:16;101611.66;;;13.80;90.37
70900;BME280;67902;52.154;5.430;2023-05-09T04:49:43;101606.19;;;13.80;90.62
70900;BME280;67902;52.154;5.430;2023-05-09T04:52:09;101604.88;;;13.83;90.44
70900;BME280;67902;52.154;5.430;2023-05-09T04:54:36;101611.94;;;13.84;90.31
70900;BME280;67902;52.154;5.430;2023-05-09T04:57:02;101605.72;;;13.83;90.61
70900;BME280;67902;52.154;5.430;2023-05-09T04:59:43;101587.22;;;13.85;89.82
70900;BME280;67902;52.154;5.430;2023-05-09T05:02:09;101588.34;;;13.89;90.49
70900;BME280;67902;52.154;5.430;2023-05-09T05:04:36;101592.50;;;13.92;90.40
70900;BME280;67902;52.154;5.430;2023-05-09T05:07:02;101593.66;;;13.96;90.33
70900;BME280;67902;52.154;5.430;2023-05-09T05:09:30;101595.88;;;13.99;89.99
70900;BME280;67902;52.154;5.430;2023-05-09T05:11:56;101589.09;;;14.02;89.96
70900;BME280;67902;52.154;5.430;2023-05-09T05:14:27;101585.66;;;14.06;90.24
70900;BME280;67902;52.154;5.430;2023-05-09T05:16:54;101577.78;;;14.10;89.89
70900;BME280;67902;52.154;5.430;2023-05-09T05:19:20;101588.53;;;14.16;89.58
70900;BME280;67902;52.154;5.430;2023-05-09T05:21:47;101567.56;;;14.17;89.74
70900;BME280;67902;52.154;5.430;2023-05-09T05:24:13;101566.22;;;14.19;89.56
70900;BME280;67902;52.154;5.430;2023-05-09T05:26:40;101566.56;;;14.23;89.29
70900;BME280;67902;52.154;5.430;2023-05-09T05:29:06;101565.25;;;14.25;89.66
70900;BME280;67902;52.154;5.430;2023-05-09T05:31:32;101555.47;;;14.29;89.25
70900;BME280;67902;52.154;5.430;2023-05-09T05:33:59;101555.00;;;14.32;89.35
70900;BME280;67902;52.154;5.430;2023-05-09T05:36:25;101557.63;;;14.44;88.92
70900;BME280;67902;52.154;5.430;2023-05-09T05:38:52;101549.00;;;14.52;88.16
70900;BME280;67902;52.154;5.430;2023-05-09T05:41:18;101544.22;;;14.59;88.48
70900;BME280;67902;52.154;5.430;2023-05-09T05:43:45;101550.28;;;14.66;88.26
70900;BME280;67902;52.154;5.430;2023-05-09T05:46:11;101545.66;;;14.67;87.78
70900;BME280;67902;52.154;5.430;2023-05-09T05:48:38;101549.22;;;14.67;87.68
70900;BME280;67902;52.154;5.430;2023-05-09T05:51:04;101550.94;;;14.73;87.59
70900;BME280;67902;52.154;5.430;2023-05-09T05:53:31;101546.91;;;14.81;87.10
70900;BME280;67902;52.154;5.430;2023-05-09T05:55:58;101544.31;;;14.91;86.84
70900;BME280;67902;52.154;5.430;2023-05-09T05:58:24;101530.44;;;14.92;87.21
70900;BME280;67902;52.154;5.430;2023-05-09T06:00:51;101537.28;;;14.95;86.92
70900;BME280;67902;52.154;5.430;2023-05-09T06:03:18;101519.56;;;14.97;86.52
70900;BME280;67902;52.154;5.430;2023-05-09T06:05:45;101520.91;;;14.95;87.03
70900;BME280;67902;52.154;5.430;2023-05-09T06:08:12;101527.19;;;14.95;86.69
70900;BME280;67902;52.154;5.430;2023-05-09T06:10:38;101534.78;;;14.93;86.57
70900;BME280;67902;52.154;5.430;2023-05-09T06:13:05;101525.81;;;14.93;86.94
70900;BME280;67902;52.154;5.430;2023-05-09T06:15:31;101520.06;;;14.94;86.83
70900;BME280;67902;52.154;5.430;2023-05-09T06:17:58;101529.03;;;14.90;86.21
70900;BME280;67902;52.154;5.430;2023-05-09T06:20:24;101514.00;;;14.87;86.31
70900;BME280;67902;52.154;5.430;2023-05-09T06:22:50;101512.69;;;14.90;86.05
70900;BME280;67902;52.154;5.430;2023-05-09T06:25:17;101502.00;;;14.88;85.92
70900;BME280;67902;52.154;5.430;2023-05-09T06:27:43;101503.66;;;14.89;86.20
70900;BME280;67902;52.154;5.430;2023-05-09T06:30:10;101502.84;;;14.89;85.86
70900;BME280;67902;52.154;5.430;2023-05-09T06:32:52;101514.25;;;14.86;85.74
70900;BME280;67902;52.154;5.430;2023-05-09T06:35:18;101503.63;;;14.84;86.37
70900;BME280;67902;52.154;5.430;2023-05-09T06:37:45;101494.34;;;14.85;86.42
70900;BME280;67902;52.154;5.430;2023-05-09T06:40:14;101488.31;;;14.83;85.59
70900;BME280;67902;52.154;5.430;2023-05-09T06:42:41;101479.31;;;14.83;85.35
70900;BME280;67902;52.154;5.430;2023-05-09T06:45:07;101483.44;;;14.85;85.29
70900;BME280;67902;52.154;5.430;2023-05-09T06:47:34;101484.81;;;14.88;85.38
70900;BME280;67902;52.154;5.430;2023-05-09T06:50:01;101485.13;;;14.91;85.42
70900;BME280;67902;52.154;5.430;2023-05-09T06:52:27;101474.00;;;14.93;85.93
70900;BME280;67902;52.154;5.430;2023-05-09T06:54:53;101470.47;;;14.97;86.26
70900;BME280;67902;52.154;5.430;2023-05-09T06:57:20;101477.59;;;14.98;85.61
70900;BME280;67902;52.154;5.430;2023-05-09T06:59:46;101469.13;;;15.00;86.10
70900;BME280;67902;52.154;5.430;2023-05-09T07:02:13;101466.97;;;15.02;86.09
70900;BME280;67902;52.154;5.430;2023-05-09T07:04:39;101467.28;;;15.05;86.61
70900;BME280;67902;52.154;5.430;2023-05-09T07:07:06;101461.81;;;15.05;86.28
70900;BME280;67902;52.154;5.430;2023-05-09T07:09:32;101469.44;;;15.03;86.04
70900;BME280;67902;52.154;5.430;2023-05-09T07:11:59;101464.81;;;15.04;85.70
70900;BME280;67902;52.154;5.430;2023-05-09T07:14:26;101462.38;;;15.07;86.17
70900;BME280;67902;52.154;5.430;2023-05-09T07:16:53;101464.06;;;15.14;84.57
70900;BME280;67902;52.154;5.430;2023-05-09T07:19:35;101454.25;;;15.13;86.29
70900;BME280;67902;52.154;5.430;2023-05-09T07:22:01;101456.47;;;15.16;87.14
70900;BME280;67902;52.154;5.430;2023-05-09T07:24:28;101455.94;;;15.19;87.20
70900;BME280;67902;52.154;5.430;2023-05-09T07:26:54;101453.78;;;15.21;86.22
70900;BME280;67902;52.154;5.430;2023-05-09T07:29:21;101453.75;;;15.16;86.45
70900;BME280;67902;52.154;5.430;2023-05-09T07:31:47;101462.44;;;15.13;86.85
70900;BME280;67902;52.154;5.430;2023-05-09T07:34:15;101458.06;;;15.12;86.63
70900;BME280;67902;52.154;5.430;2023-05-09T07:36:41;101450.91;;;15.05;87.41
70900;BME280;67902;52.154;5.430;2023-05-09T07:39:08;101453.63;;;15.05;87.86
70900;BME280;67902;52.154;5.430;2023-05-09T07:41:34;101445.13;;;15.02;87.85
70900;BME280;67902;52.154;5.430;2023-05-09T07:44:01;101449.25;;;15.04;87.81
70900;BME280;67902;52.154;5.430;2023-05-09T07:46:27;101448.75;;;15.07;88.49
70900;BME280;67902;52.154;5.430;2023-05-09T07:48:53;101439.47;;;15.08;88.13
70900;BME280;67902;52.154;5.430;2023-05-09T07:51:20;101447.13;;;15.06;87.88
70900;BME280;67902;52.154;5.430;2023-05-09T07:53:46;101443.28;;;15.07;88.29
70900;BME280;67902;52.154;5.430;2023-05-09T07:56:13;101444.94;;;15.08;88.59
70900;BME280;67902;52.154;5.430;2023-05-09T07:58:39;101438.44;;;15.15;88.79
70900;BME280;67902;52.154;5.430;2023-05-09T08:01:06;101432.16;;;15.14;88.70
70900;BME280;67902;52.154;5.430;2023-05-09T08:03:32;101426.72;;;15.14;88.72
70900;BME280;67902;52.154;5.430;2023-05-09T08:05:58;101430.50;;;15.13;88.82
70900;BME280;67902;52.154;5.430;2023-05-09T08:08:25;101417.66;;;15.08;88.99
70900;BME280;67902;52.154;5.430;2023-05-09T08:10:53;101422.59;;;15.12;88.50
70900;BME280;67902;52.154;5.430;2023-05-09T08:13:20;101413.34;;;15.13;89.33
70900;BME280;67902;52.154;5.430;2023-05-09T08:15:48;101414.97;;;15.14;89.11
70900;BME280;67902;52.154;5.430;2023-05-09T08:18:14;101398.59;;;15.14;89.56
70900;BME280;67902;52.154;5.430;2023-05-09T08:20:41;101404.06;;;15.14;88.53
70900;BME280;67902;52.154;5.430;2023-05-09T08:23:07;101408.41;;;15.09;89.10
70900;BME280;67902;52.154;5.430;2023-05-09T08:25:34;101400.22;;;15.09;89.18
70900;BME280;67902;52.154;5.430;2023-05-09T08:28:00;101400.56;;;15.18;89.05
70900;BME280;67902;52.154;5.430;2023-05-09T08:30:27;101398.69;;;15.24;88.32
70900;BME280;67902;52.154;5.430;2023-05-09T08:32:54;101391.88;;;15.21;88.38
70900;BME280;67902;52.154;5.430;2023-05-09T08:35:24;101393.75;;;15.21;90.00
70900;BME280;67902;52.154;5.430;2023-05-09T08:37:50;101386.06;;;15.13;90.18
70900;BME280;67902;52.154;5.430;2023-05-09T08:40:17;101382.50;;;15.12;90.05
70900;BME280;67902;52.154;5.430;2023-05-09T08:42:43;101382.22;;;15.14;89.96
70900;BME280;67902;52.154;5.430;2023-05-09T08:45:12;101379.03;;;15.22;89.61
70900;BME280;67902;52.154;5.430;2023-05-09T08:47:43;101386.69;;;15.25;89.37
70900;BME280;67902;52.154;5.430;2023-05-09T08:50:09;101379.09;;;15.27;88.92
70900;BME280;67902;52.154;5.430;2023-05-09T08:52:37;101378.22;;;15.21;89.07
70900;BME280;67902;52.154;5.430;2023-05-09T08:55:04;101383.84;;;15.09;89.42
70900;BME280;67902;52.154;5.430;2023-05-09T08:57:31;101369.06;;;15.05;89.15
70900;BME280;67902;52.154;5.430;2023-05-09T09:00:00;101370.94;;;15.00;89.72
70900;BME280;67902;52.154;5.430;2023-05-09T09:02:26;101369.91;;;15.06;90.28
70900;BME280;67902;52.154;5.430;2023-05-09T09:04:53;101369.38;;;15.09;89.32
70900;BME280;67902;52.154;5.430;2023-05-09T09:07:21;101369.91;;;15.06;89.50
70900;BME280;67902;52.154;5.430;2023-05-09T09:09:48;101360.94;;;15.10;90.03
70900;BME280;67902;52.154;5.430;2023-05-09T09:12:16;101363.16;;;15.19;90.29
70900;BME280;67902;52.154;5.430;2023-05-09T09:14:47;101361.53;;;15.18;89.81
70900;BME280;67902;52.154;5.430;2023-05-09T09:17:17;101365.09;;;15.18;90.08
70900;BME280;67902;52.154;5.430;2023-05-09T09:19:48;101365.38;;;15.22;89.31
70900;BME280;67902;52.154;5.430;2023-05-09T09:22:17;101356.94;;;15.23;90.13
70900;BME280;67902;52.154;5.430;2023-05-09T09:24:44;101357.19;;;15.22;89.35
70900;BME280;67902;52.154;5.430;2023-05-09T09:27:11;101359.38;;;15.20;90.09
70900;BME280;67902;52.154;5.430;2023-05-09T09:29:37;101351.06;;;15.04;89.98
70900;BME280;67902;52.154;5.430;2023-05-09T09:32:05;101347.75;;;14.97;90.26
70900;BME280;67902;52.154;5.430;2023-05-09T09:34:32;101347.75;;;14.97;91.14
70900;BME280;67902;52.154;5.430;2023-05-09T09:36:58;101351.59;;;15.01;91.18
70900;BME280;67902;52.154;5.430;2023-05-09T09:39:24;101343.13;;;14.98;91.39
70900;BME280;67902;52.154;5.430;2023-05-09T09:41:52;101337.69;;;15.03;90.98
70900;BME280;67902;52.154;5.430;2023-05-09T09:44:20;101337.19;;;15.06;91.29
70900;BME280;67902;52.154;5.430;2023-05-09T09:49:18;101340.22;;;15.09;91.02
70900;BME280;67902;52.154;5.430;2023-05-09T09:51:51;101343.97;;;15.03;90.66
70900;BME280;67902;52.154;5.430;2023-05-09T09:54:19;101335.47;;;14.95;91.32
70900;BME280;67902;52.154;5.430;2023-05-09T09:56:47;101338.44;;;14.93;91.08
70900;BME280;67902;52.154;5.430;2023-05-09T09:59:16;101334.09;;;14.97;91.93
70900;BME280;67902;52.154;5.430;2023-05-09T10:01:59;101334.09;;;14.97;90.44
70900;BME280;67902;52.154;5.430;2023-05-09T10:04:40;101329.72;;;14.96;92.29
70900;BME280;67902;52.154;5.430;2023-05-09T10:07:09;101326.09;;;14.86;92.31
70900;BME280;67902;52.154;5.430;2023-05-09T10:09:39;101325.16;;;14.70;92.00
70900;BME280;67902;52.154;5.430;2023-05-09T10:12:07;101334.94;;;14.66;92.35
70900;BME280;67902;52.154;5.430;2023-05-09T10:14:35;101328.66;;;14.66;92.29
70900;BME280;67902;52.154;5.430;2023-05-09T10:17:03;101320.25;;;14.72;92.89
70900;BME280;67902;52.154;5.430;2023-05-09T10:19:31;101322.47;;;14.75;92.72
70900;BME280;67902;52.154;5.430;2023-05-09T10:22:01;101327.66;;;14.77;92.06
70900;BME280;67902;52.154;5.430;2023-05-09T10:27:11;101316.53;;;14.83;92.96
70900;BME280;67902;52.154;5.430;2023-05-09T10:29:48;101316.84;;;14.87;92.97
70900;BME280;67902;52.154;5.430;2023-05-09T10:34:51;101309.84;;;14.96;93.11
70900;BME280;67902;52.154;5.430;2023-05-09T10:37:20;101316.03;;;14.86;92.15
70900;BME280;67902;52.154;5.430;2023-05-09T10:39:47;101304.78;;;14.78;93.23
70900;BME280;67902;52.154;5.430;2023-05-09T10:42:18;101300.63;;;14.70;93.08
70900;BME280;67902;52.154;5.430;2023-05-09T10:44:45;101298.41;;;14.67;93.10
70900;BME280;67902;52.154;5.430;2023-05-09T10:47:12;101289.97;;;14.69;92.88
70900;BME280;67902;52.154;5.430;2023-05-09T10:49:39;101282.94;;;14.73;93.44
70900;BME280;67902;52.154;5.430;2023-05-09T10:52:06;101287.34;;;14.79;94.05
70900;BME280;67902;52.154;5.430;2023-05-09T10:54:35;101290.88;;;14.79;93.75
70900;BME280;67902;52.154;5.430;2023-05-09T10:57:01;101274.25;;;14.81;93.37
70900;BME280;67902;52.154;5.430;2023-05-09T10:59:40;101278.97;;;14.90;93.77
70900;BME280;67902;52.154;5.430;2023-05-09T11:02:16;101283.09;;;14.93;92.86
70900;BME280;67902;52.154;5.430;2023-05-09T11:04:44;101275.34;;;14.80;92.95
70900;BME280;67902;52.154;5.430;2023-05-09T11:07:26;101268.00;;;14.85;93.44
70900;BME280;67902;52.154;5.430;2023-05-09T11:10:07;101265.38;;;14.95;93.56
70900;BME280;67902;52.154;5.430;2023-05-09T11:12:33;101262.03;;;14.88;93.34
70900;BME280;67902;52.154;5.430;2023-05-09T11:15:04;101261.75;;;14.85;93.88
70900;BME280;67902;52.154;5.430;2023-05-09T11:17:31;101260.13;;;14.84;94.17
70900;BME280;67902;52.154;5.430;2023-05-09T11:20:00;101257.38;;;14.84;93.90
70900;BME280;67902;52.154;5.430;2023-05-09T11:22:30;101260.34;;;14.82;94.31
70900;BME280;67902;52.154;5.430;2023-05-09T11:25:06;101252.81;;;14.94;94.06
70900;BME280;67902;52.154;5.430;2023-05-09T11:27:42;101246.81;;;14.92;93.89
70900;BME280;67902;52.154;5.430;2023-05-09T11:30:11;101244.59;;;14.89;93.40
70900;BME280;67902;52.154;5.430;2023-05-09T11:32:41;101241.28;;;14.82;93.85
70900;BME280;67902;52.154;5.430;2023-05-09T11:35:09;101245.63;;;14.78;93.70
70900;BME280;67902;52.154;5.430;2023-05-09T11:38:01;101230.84;;;14.74;94.00
70900;BME280;67902;52.154;5.430;2023-05-09T11:40:28;101232.56;;;14.85;94.54
70900;BME280;67902;52.154;5.430;2023-05-09T11:42:55;101230.69;;;14.91;94.47
70900;BME280;67902;52.154;5.430;2023-05-09T11:45:26;101227.16;;;14.90;94.66
70900;BME280;67902;52.154;5.430;2023-05-09T11:47:53;101229.50;;;14.77;94.15
70900;BME280;67902;52.154;5.430;2023-05-09T11:50:20;101223.78;;;14.73;94.92
70900;BME280;67902;52.154;5.430;2023-05-09T11:52:47;101217.19;;;14.69;95.42
70900;BME280;67902;52.154;5.430;2023-05-09T11:55:19;101216.84;;;14.61;94.98
70900;BME280;67902;52.154;5.430;2023-05-09T11:57:51;101214.41;;;14.59;95.24
70900;BME280;67902;52.154;5.430;2023-05-09T12:00:20;101210.06;;;14.63;95.42
70900;BME280;67902;52.154;5.430;2023-05-09T12:02:47;101213.56;;;14.54;95.65
70900;BME280;67902;52.154;5.430;2023-05-09T12:05:16;101203.91;;;14.41;95.84
70900;BME280;67902;52.154;5.430;2023-05-09T12:07:43;101209.88;;;14.38;96.10
70900;BME280;67902;52.154;5.430;2023-05-09T12:10:13;101208.16;;;14.32;96.00
70900;BME280;67902;52.154;5.430;2023-05-09T12:12:48;101203.22;;;14.29;96.26
70900;BME280;67902;52.154;5.430;2023-05-09T12:15:15;101212.44;;;14.23;96.56
70900;BME280;67902;52.154;5.430;2023-05-09T12:17:43;101206.47;;;14.26;96.54
70900;BME280;67902;52.154;5.430;2023-05-09T12:20:10;101201.56;;;14.23;96.45
70900;BME280;67902;52.154;5.430;2023-05-09T12:22:37;101201.56;;;14.23;96.84
70900;BME280;67902;52.154;5.430;2023-05-09T12:25:06;101202.34;;;14.23;96.42
70900;BME280;67902;52.154;5.430;2023-05-09T12:27:38;101202.63;;;14.22;96.38
70900;BME280;67902;52.154;5.430;2023-05-09T12:30:06;101199.06;;;14.21;97.29
70900;BME280;67902;52.154;5.430;2023-05-09T12:32:37;101190.75;;;14.33;97.25
70900;BME280;67902;52.154;5.430;2023-05-09T12:35:06;101188.94;;;14.43;96.97
70900;BME280;67902;52.154;5.430;2023-05-09T12:37:33;101191.44;;;14.50;96.78
70900;BME280;67902;52.154;5.430;2023-05-09T12:40:18;101183.78;;;14.47;97.08
70900;BME280;67902;52.154;5.430;2023-05-09T12:42:45;101185.91;;;14.40;96.72
70900;BME280;67902;52.154;5.430;2023-05-09T12:45:12;101183.97;;;14.35;96.51
70900;BME280;67902;52.154;5.430;2023-05-09T12:47:39;101173.91;;;14.36;96.92
70900;BME280;67902;52.154;5.430;2023-05-09T12:50:09;101173.16;;;14.45;97.26
70900;BME280;67902;52.154;5.430;2023-05-09T12:52:40;101167.78;;;14.56;97.27
70900;BME280;67902;52.154;5.430;2023-05-09T12:55:27;101159.31;;;14.57;96.92
70900;BME280;67902;52.154;5.430;2023-05-09T12:58:01;101159.41;;;14.67;97.10
70900;BME280;67902;52.154;5.430;2023-05-09T13:00:42;101153.22;;;14.82;97.06
70900;BME280;67902;52.154;5.430;2023-05-09T13:03:26;101154.88;;;14.88;96.28
70900;BME280;67902;52.154;5.430;2023-05-09T13:06:01;101147.00;;;14.91;96.55
70900;BME280;67902;52.154;5.430;2023-05-09T13:08:29;101158.44;;;14.93;96.20
70900;BME280;67902;52.154;5.430;2023-05-09T13:10:58;101144.53;;;14.85;95.84